Time;durP1;ratioP1;P1;durP2;ratioP2;P2;SDS_P1;SDS_P2;PMS_P1;PMS_P2;Temp;Humidity;BMP_temperature;BMP_pressure;BME280_temperature;BME280_humidity;BME280_pressure;Samples;Min_cycle;Max_cycle;Signal;HPM_P1;HPM_P2
2023/04/14 00:01:13;;;;;;;1.35;0.57;;;;;;;19.22;52.18;99798.63;5035386;28;20052;-58
2023/04/14 00:03:41;;;;;;;0.95;0.38;;;;;;;19.22;52.25;99793.25;5035484;28;20053;-58
2023/04/14 00:06:08;;;;;;;1.35;0.60;;;;;;;19.22;52.03;99785.22;5035460;28;20495;-51
2023/04/14 00:08:36;;;;;;;2.17;0.70;;;;;;;19.21;51.91;99780.84;5035324;28;20050;-51
2023/04/14 00:11:03;;;;;;;1.52;0.63;;;;;;;19.21;51.99;99786.22;5035262;28;20383;-50
2023/04/14 00:13:31;;;;;;;1.75;0.60;;;;;;;19.21;52.18;99791.59;5035252;28;20060;-52
2023/04/14 00:15:58;;;;;;;1.08;0.38;;;;;;;19.22;52.24;99782.53;5035357;28;20514;-49
2023/04/14 00:18:25;;;;;;;2.33;0.70;;;;;;;19.21;51.92;99791.59;5035215;28;20108;-50
2023/04/14 00:20:53;;;;;;;1.75;0.57;;;;;;;19.20;52.18;99795.28;5035060;28;20046;-48
2023/04/14 00:23:20;;;;;;;2.38;0.73;;;;;;;19.21;52.16;99785.38;5035635;28;20069;-50
2023/04/14 00:25:50;;;;;;;1.50;0.50;;;;;;;19.20;52.13;99779.19;5035115;28;20056;-47
2023/04/14 00:28:18;;;;;;;1.33;0.60;;;;;;;19.20;52.25;99792.59;5035121;28;20415;-48
2023/04/14 00:30:46;;;;;;;1.38;0.50;;;;;;;19.20;52.18;99783.69;5033369;28;20417;-47
2023/04/14 00:33:13;;;;;;;1.30;0.50;;;;;;;19.20;52.08;99789.03;5034854;28;20407;-49
2023/04/14 00:35:40;;;;;;;1.60;0.63;;;;;;;19.19;52.03;99782.84;5033592;28;20057;-48
2023/04/14 00:38:08;;;;;;;1.48;0.60;;;;;;;19.19;52.06;99790.88;5034745;28;20411;-51
2023/04/14 00:40:35;;;;;;;1.10;0.60;;;;;;;19.19;52.08;99782.00;5034944;28;20068;-58
2023/04/14 00:43:02;;;;;;;1.83;0.80;;;;;;;19.19;52.13;99790.88;5034740;28;20045;-58
2023/04/14 00:45:29;;;;;;;0.98;0.50;;;;;;;19.19;52.05;99793.56;5034941;28;20041;-58
2023/04/14 00:47:57;;;;;;;1.63;0.57;;;;;;;19.19;52.22;99782.84;5034648;28;20049;-58
2023/04/14 00:50:24;;;;;;;1.48;0.55;;;;;;;19.18;51.97;99791.91;5034516;28;20056;-58
2023/04/14 00:52:52;;;;;;;1.55;0.60;;;;;;;19.18;52.04;99791.91;5033865;28;20361;-58
2023/04/14 00:55:20;;;;;;;1.85;0.80;;;;;;;19.18;52.15;99799.94;5034869;28;20593;-58
2023/04/14 00:57:49;;;;;;;1.85;0.70;;;;;;;19.18;52.26;99794.56;5034414;28;20053;-58
2023/04/14 01:00:17;;;;;;;1.70;0.60;;;;;;;19.18;52.13;99791.06;5033439;28;20058;-58
2023/04/14 01:02:45;;;;;;;1.55;0.65;;;;;;;19.18;52.17;99777.63;5034317;28;20042;-58
2023/04/14 01:05:13;;;;;;;1.77;0.43;;;;;;;19.18;52.11;99780.31;5032811;28;20050;-49
2023/04/14 01:07:41;;;;;;;2.17;0.60;;;;;;;19.18;52.18;99780.31;5033261;28;20049;-47
2023/04/14 01:10:09;;;;;;;0.77;0.50;;;;;;;19.16;52.13;99777.81;5032714;28;20049;-47
2023/04/14 01:12:53;;;;;;;1.38;0.60;;;;;;;19.17;52.09;99779.47;5032865;28;20053;-51
2023/04/14 01:15:33;;;;;;;2.22;0.50;;;;;;;19.17;52.11;99778.66;5034107;28;20406;-49
2023/04/14 01:18:13;;;;;;;1.83;0.80;;;;;;;19.16;52.01;99782.31;5032416;28;20475;-47
2023/04/14 01:20:43;;;;;;;3.33;0.68;;;;;;;19.16;52.08;99777.81;5032267;28;20057;-49
2023/04/14 01:23:19;;;;;;;1.48;0.45;;;;;;;19.16;52.12;99774.25;5033981;28;20049;-48
2023/04/14 01:25:56;;;;;;;0.85;0.40;;;;;;;19.15;51.90;99781.47;5034000;28;20057;-58
2023/04/14 01:28:42;;;;;;;1.50;0.40;;;;;;;19.15;52.04;99780.63;5034097;28;20472;-48
2023/04/14 01:31:49;;;;;;;2.03;0.38;;;;;;;19.14;51.99;99779.78;5032291;28;20416;-49
2023/04/14 01:34:28;;;;;;;3.88;0.55;;;;;;;19.15;52.04;99776.09;5034388;28;20075;-52
2023/04/14 01:37:10;;;;;;;0.93;0.40;;;;;;;19.15;52.07;99769.91;5035191;28;20066;-49
2023/04/14 01:39:40;;;;;;;1.23;0.47;;;;;;;19.15;51.94;99769.91;5032406;28;20503;-48
2023/04/14 01:42:13;;;;;;;1.15;0.50;;;;;;;19.14;52.02;99774.41;5033747;28;20060;-47
2023/04/14 01:44:41;;;;;;;;;;;;;;;19.14;51.98;99769.06;5033077;28;20064;-57
2023/04/14 01:47:12;;;;;;;1.38;0.50;;;;;;;19.14;51.98;99771.75;5033715;28;20402;-58
2023/04/14 01:49:43;;;;;;;1.27;0.50;;;;;;;19.14;51.86;99774.41;5032544;28;20049;-58
2023/04/14 01:52:14;;;;;;;1.73;0.40;;;;;;;19.14;51.92;99771.75;5031980;28;20427;-58
2023/04/14 01:54:43;;;;;;;1.02;0.43;;;;;;;19.13;51.83;99775.44;5033547;28;20049;-51
2023/04/14 01:57:14;;;;;;;2.67;0.50;;;;;;;19.13;51.85;99764.69;5015998;28;20068;-51
2023/04/14 01:59:44;;;;;;;0.77;0.30;;;;;;;19.12;51.94;99768.38;5031759;28;20058;-51
2023/04/14 02:02:14;;;;;;;2.00;0.88;;;;;;;19.14;51.99;99781.63;5032195;28;20049;-52
2023/04/14 02:04:42;;;;;;;1.35;0.40;;;;;;;19.13;51.89;99763.84;5032971;28;20061;-52
2023/04/14 02:07:12;;;;;;;0.65;0.30;;;;;;;19.12;51.83;99768.38;5033318;28;20049;-49
2023/04/14 02:09:42;;;;;;;1.10;0.50;;;;;;;19.12;51.79;99773.75;5032141;28;20053;-51
2023/04/14 02:12:11;;;;;;;1.65;0.70;;;;;;;19.12;51.97;99767.50;5032362;28;20423;-52
2023/04/14 02:14:41;;;;;;;1.20;0.43;;;;;;;19.13;52.00;99755.81;5033477;28;20068;-56
2023/04/14 02:17:11;;;;;;;1.23;0.50;;;;;;;19.12;51.91;99770.19;5032089;28;20045;-58
2023/04/14 02:19:41;;;;;;;0.98;0.40;;;;;;;19.12;51.74;99754.09;5031947;28;20053;-58
2023/04/14 02:22:09;;;;;;;0.88;0.35;;;;;;;19.11;51.91;99758.63;5033327;28;20042;-58
2023/04/14 02:24:37;;;;;;;1.05;0.40;;;;;;;19.12;51.96;99760.34;5033435;28;20046;-57
2023/04/14 02:27:09;;;;;;;0.88;0.28;;;;;;;19.11;51.89;99741.69;5033025;28;20060;-49
2023/04/14 02:29:40;;;;;;;1.13;0.50;;;;;;;19.11;51.77;99742.53;5032126;28;20054;-51
2023/04/14 02:32:16;;;;;;;1.13;0.30;;;;;;;19.11;51.95;99747.91;5031865;28;20056;-50
2023/04/14 02:35:02;;;;;;;1.00;0.30;;;;;;;19.11;52.02;99747.91;5033405;28;20128;-58
2023/04/14 02:37:40;;;;;;;1.25;0.47;;;;;;;19.10;51.99;99751.59;5031668;28;20045;-58
2023/04/14 02:40:16;;;;;;;1.42;0.47;;;;;;;19.09;51.95;99752.59;5033191;28;20388;-58
2023/04/14 02:42:47;;;;;;;1.00;0.30;;;;;;;19.10;51.95;99758.81;5033281;28;20495;-58
2023/04/14 02:45:20;;;;;;;2.75;0.50;;;;;;;19.10;52.07;99761.47;5031659;28;20056;-51
2023/04/14 02:47:53;;;;;;;1.08;0.30;;;;;;;19.09;52.09;99741.88;5031425;28;20056;-49
2023/04/14 02:50:22;;;;;;;1.08;0.30;;;;;;;19.09;51.86;99747.22;5032458;28;20054;-48
2023/04/14 02:53:09;;;;;;;0.90;0.30;;;;;;;19.10;51.90;99758.81;5031287;28;20049;-48
2023/04/14 02:55:37;;;;;;;0.60;0.20;;;;;;;19.09;51.98;99749.06;5032148;28;20045;-58
2023/04/14 02:58:06;;;;;;;1.55;0.50;;;;;;;19.09;51.82;99747.22;5032974;28;20045;-58
2023/04/14 03:00:38;;;;;;;0.50;0.20;;;;;;;19.09;51.93;99757.97;5031262;28;20049;-58
2023/04/14 03:03:08;;;;;;;1.38;0.40;;;;;;;19.08;51.88;99748.25;5031974;28;20068;-58
2023/04/14 03:05:39;;;;;;;1.20;0.30;;;;;;;19.09;51.83;99744.53;5031448;28;20476;-49
2023/04/14 03:08:13;;;;;;;0.45;0.20;;;;;;;19.09;51.79;99749.06;5032085;28;20068;-47
2023/04/14 03:10:46;;;;;;;1.48;0.50;;;;;;;19.07;51.81;99757.25;5033011;28;20037;-48
2023/04/14 03:13:17;;;;;;;0.57;0.40;;;;;;;19.08;52.08;99748.25;5031784;28;20042;-52
2023/04/14 03:15:48;;;;;;;1.52;0.60;;;;;;;19.07;51.95;99743.84;5031201;28;20069;-49
2023/04/14 03:18:17;;;;;;;2.15;0.50;;;;;;;19.07;51.88;99749.22;5034905;28;20060;-48
2023/04/14 03:20:46;;;;;;;2.20;0.30;;;;;;;19.06;51.89;99747.53;5036332;28;20068;-49
2023/04/14 03:23:17;;;;;;;0.70;0.35;;;;;;;19.07;51.92;99748.38;5036132;28;20476;-51
2023/04/14 03:25:52;;;;;;;0.45;0.25;;;;;;;19.08;52.01;99742.00;5035104;28;20057;-51
2023/04/14 03:28:28;;;;;;;1.23;0.40;;;;;;;19.07;51.69;99745.69;5035501;28;20415;-48
2023/04/14 03:31:00;;;;;;;0.95;0.38;;;;;;;19.06;51.65;99741.34;5036230;28;20057;-49
2023/04/14 03:33:34;;;;;;;2.00;0.50;;;;;;;19.07;51.41;99748.38;5034394;28;20053;-50
2023/04/14 03:36:03;;;;;;;0.90;0.45;;;;;;;19.07;52.07;99745.69;5034456;28;20049;-50
2023/04/14 03:38:33;;;;;;;2.83;0.40;;;;;;;19.07;52.08;99748.38;5034425;28;20057;-50
2023/04/14 03:41:05;;;;;;;1.10;0.50;;;;;;;19.05;52.11;99745.84;5034283;28;20076;-48
2023/04/14 03:43:33;;;;;;;2.55;0.63;;;;;;;19.05;52.11;99748.53;5034206;28;20058;-47
2023/04/14 03:46:05;;;;;;;0.75;0.30;;;;;;;19.07;52.06;99745.69;5034485;28;20049;-48
2023/04/14 03:48:41;;;;;;;1.98;0.60;;;;;;;19.05;51.86;99737.81;5034112;28;20514;-50
2023/04/14 03:51:12;;;;;;;1.42;0.40;;;;;;;19.05;51.72;99745.03;5034958;28;20112;-49
2023/04/14 03:53:44;;;;;;;1.92;0.50;;;;;;;19.05;51.76;99735.13;5033951;28;20049;-49
2023/04/14 03:56:12;;;;;;;1.15;0.50;;;;;;;19.04;51.60;99736.13;5034275;28;20053;-58
2023/04/14 03:58:46;;;;;;;0.50;0.30;;;;;;;19.05;51.63;99750.38;5034079;28;20049;-58
2023/04/14 04:01:17;;;;;;;2.55;0.60;;;;;;;19.03;51.58;99737.94;5034581;28;20496;-58
2023/04/14 04:03:45;;;;;;;1.10;0.50;;;;;;;19.03;51.44;99735.25;5035549;28;20041;-58
2023/04/14 04:06:14;;;;;;;1.85;0.45;;;;;;;19.03;51.45;99742.47;5034503;28;20053;-58
2023/04/14 04:08:43;;;;;;;1.35;0.43;;;;;;;19.02;51.53;99744.31;5034502;28;20057;-58
2023/04/14 04:11:11;;;;;;;1.23;0.38;;;;;;;19.03;51.71;99755.88;5034395;28;20500;-58
2023/04/14 04:13:40;;;;;;;0.75;0.40;;;;;;;19.02;51.49;99752.38;5034318;28;20041;-58
2023/04/14 04:16:10;;;;;;;1.00;0.30;;;;;;;19.02;51.25;99754.22;5033894;28;20046;-58
2023/04/14 04:18:41;;;;;;;3.00;0.52;;;;;;;19.02;51.44;99762.25;5035323;28;20042;-58
2023/04/14 04:21:10;;;;;;;2.30;0.60;;;;;;;19.03;51.33;99755.88;5033864;28;20054;-58
2023/04/14 04:23:42;;;;;;;1.38;0.40;;;;;;;19.02;51.29;99762.25;5033497;28;20046;-58
2023/04/14 04:26:10;;;;;;;3.03;0.55;;;;;;;19.02;51.44;99751.53;5033440;28;20053;-53
2023/04/14 04:28:39;;;;;;;2.88;0.60;;;;;;;19.00;51.32;99765.09;5032506;28;20064;-49
2023/04/14 04:31:08;;;;;;;0.82;0.30;;;;;;;19.01;51.53;99765.94;5034043;28;20053;-50
2023/04/14 04:33:37;;;;;;;1.40;0.50;;;;;;;19.01;51.33;99760.59;5033877;28;20468;-50
2023/04/14 04:36:05;;;;;;;1.17;0.50;;;;;;;19.01;51.40;99765.94;5034190;28;20500;-49
2023/04/14 04:38:38;;;;;;;1.10;0.40;;;;;;;19.00;51.41;99764.28;5033245;28;20060;-49
2023/04/14 04:41:06;;;;;;;0.90;0.38;;;;;;;19.00;51.29;99758.91;5033210;28;20050;-48
2023/04/14 04:43:35;;;;;;;1.08;0.40;;;;;;;19.00;51.49;99758.91;5033317;28;20065;-48
2023/04/14 04:46:39;;;;;;;0.88;0.40;;;;;;;18.99;51.30;99750.00;5033386;28;20072;-49
2023/04/14 04:49:07;;;;;;;0.50;0.28;;;;;;;18.99;51.46;99757.19;5033305;28;20049;-51
2023/04/14 04:51:34;;;;;;;1.58;0.40;;;;;;;18.99;51.43;99755.34;5033022;28;20070;-49
2023/04/14 04:54:02;;;;;;;1.05;0.57;;;;;;;18.98;51.55;99753.69;5032991;28;20041;-53
2023/04/14 04:56:30;;;;;;;1.10;0.45;;;;;;;18.97;51.46;99757.38;5034606;28;20060;-58
2023/04/14 04:59:01;;;;;;;1.90;0.40;;;;;;;18.98;51.52;99769.78;5034271;28;20407;-58
2023/04/14 05:01:28;;;;;;;0.85;0.30;;;;;;;18.98;51.41;99767.09;5034612;28;20373;-58
2023/04/14 05:03:56;;;;;;;1.23;0.52;;;;;;;18.98;51.43;99763.56;5034365;28;20041;-58
2023/04/14 05:06:23;;;;;;;0.60;0.25;;;;;;;18.98;51.37;99764.41;5034427;28;20443;-58
2023/04/14 05:08:52;;;;;;;1.10;0.45;;;;;;;18.98;51.46;99758.19;5034234;28;20045;-58
2023/04/14 05:11:19;;;;;;;1.30;0.50;;;;;;;18.97;51.54;99759.22;5034013;28;20046;-58
2023/04/14 05:13:47;;;;;;;0.93;0.38;;;;;;;18.97;51.73;99761.88;5034121;28;20057;-58
2023/04/14 05:16:14;;;;;;;1.50;0.40;;;;;;;18.98;51.64;99768.94;5034353;28;20053;-52
2023/04/14 05:18:42;;;;;;;4.35;0.50;;;;;;;18.97;51.68;99762.72;5034223;28;20049;-50
2023/04/14 05:21:14;;;;;;;2.17;0.40;;;;;;;18.98;51.85;99774.28;5034089;28;20056;-50
2023/04/14 05:23:42;;;;;;;3.22;0.55;;;;;;;18.97;51.64;99773.47;5034071;28;20045;-50
2023/04/14 05:26:11;;;;;;;1.15;0.50;;;;;;;18.99;51.69;99773.28;5033703;28;20064;-48
2023/04/14 05:28:42;;;;;;;1.77;0.50;;;;;;;18.97;51.54;99775.31;5032443;28;20080;-49
2023/04/14 05:31:09;;;;;;;1.40;0.30;;;;;;;18.97;51.73;99781.50;5034048;28;20382;-50
2023/04/14 05:33:38;;;;;;;2.85;0.55;;;;;;;18.98;51.50;99785.03;5033887;28;20071;-52
2023/04/14 05:36:06;;;;;;;1.70;0.40;;;;;;;18.97;51.47;99781.50;5034015;28;20053;-58
2023/04/14 05:38:40;;;;;;;1.58;0.50;;;;;;;18.98;51.59;99790.38;5033900;28;20038;-58
2023/04/14 05:41:08;;;;;;;0.80;0.40;;;;;;;18.97;51.64;99792.22;5033758;28;20054;-58
2023/04/14 05:43:35;;;;;;;1.40;0.65;;;;;;;18.97;51.50;99788.72;5033818;28;20041;-58
2023/04/14 05:46:03;;;;;;;1.25;0.40;;;;;;;18.97;51.64;99783.34;5034105;28;20049;-58
2023/04/14 05:48:32;;;;;;;2.67;0.63;;;;;;;18.97;51.53;99786.03;5034356;28;20060;-58
2023/04/14 05:50:59;;;;;;;1.08;0.40;;;;;;;18.97;51.56;99786.03;5033535;28;20040;-58
2023/04/14 05:53:27;;;;;;;1.08;0.40;;;;;;;18.96;51.58;99793.25;5033664;28;20038;-58
2023/04/14 05:55:55;;;;;;;1.10;0.40;;;;;;;18.96;51.66;99803.97;5033544;28;20499;-58
2023/04/14 05:58:25;;;;;;;1.25;0.32;;;;;;;18.96;51.43;99814.69;5033636;28;20049;-58
2023/04/14 06:00:52;;;;;;;0.70;0.30;;;;;;;18.96;51.44;99816.53;5033648;28;20048;-58
2023/04/14 06:03:20;;;;;;;1.23;0.40;;;;;;;18.95;51.67;99815.66;5033608;28;20052;-58
2023/04/14 06:05:49;;;;;;;0.88;0.40;;;;;;;18.96;51.38;99821.91;5033870;28;20058;-48
2023/04/14 06:08:18;;;;;;;1.60;0.60;;;;;;;18.96;51.22;99824.59;5033667;28;20056;-51
2023/04/14 06:10:45;;;;;;;0.90;0.38;;;;;;;18.95;51.35;99833.59;5033353;28;20056;-51
2023/04/14 06:13:12;;;;;;;3.20;0.57;;;;;;;18.96;51.77;99832.63;5033658;28;20046;-48
2023/04/14 06:15:40;;;;;;;0.77;0.25;;;;;;;18.96;51.49;99829.94;5033338;28;20076;-57
2023/04/14 06:18:07;;;;;;;0.80;0.35;;;;;;;18.96;51.38;99829.94;5033489;28;20403;-58
2023/04/14 06:20:35;;;;;;;1.70;0.70;;;;;;;18.95;51.61;99825.56;5033013;28;20048;-58
2023/04/14 06:23:02;;;;;;;0.95;0.35;;;;;;;18.95;51.67;99818.34;5033429;28;20392;-58
2023/04/14 06:25:29;;;;;;;1.02;0.30;;;;;;;18.96;51.77;99822.75;5033011;28;20045;-51
2023/04/14 06:27:57;;;;;;;2.05;0.85;;;;;;;18.94;51.59;99816.66;5033659;28;20045;-50
2023/04/14 06:30:27;;;;;;;2.42;0.50;;;;;;;18.95;51.72;99828.25;5033403;28;20052;-50
2023/04/14 06:32:55;;;;;;;2.42;0.50;;;;;;;18.95;51.71;99822.88;5033339;28;20487;-48
2023/04/14 06:35:22;;;;;;;4.15;0.60;;;;;;;18.94;51.92;99830.09;5033274;28;20041;-57
2023/04/14 06:37:59;;;;;;;2.80;0.70;;;;;;;18.94;51.96;99832.75;5033408;28;20056;-58
2023/04/14 06:40:26;;;;;;;4.25;0.60;;;;;;;18.95;52.00;99833.59;5033921;28;20041;-58
2023/04/14 06:42:53;;;;;;;2.15;0.73;;;;;;;18.94;51.71;99830.09;5033222;28;20050;-58
2023/04/14 06:45:21;;;;;;;2.55;0.90;;;;;;;18.94;51.70;99830.09;5033767;28;20041;-57
2023/04/14 06:47:48;;;;;;;4.70;1.50;;;;;;;18.94;50.58;99832.75;5032964;28;20041;-57
2023/04/14 06:50:15;;;;;;;3.60;1.23;;;;;;;18.93;50.25;99854.38;5033098;28;20045;-58
2023/04/14 06:52:43;;;;;;;4.57;1.52;;;;;;;18.92;50.28;99848.19;5035979;28;20437;-58
2023/04/14 06:55:10;;;;;;;3.42;1.30;;;;;;;18.92;49.96;99839.25;5035206;28;20057;-57
2023/04/14 06:57:37;;;;;;;4.47;1.67;;;;;;;18.89;49.07;99843.13;5051740;28;20475;-58
2023/04/14 07:00:09;;;;;;;5.60;1.77;;;;;;;18.87;48.95;99849.63;5056263;28;20052;-58
2023/04/14 07:02:37;;;;;;;6.15;1.60;;;;;;;18.86;49.10;99851.47;5056221;28;20369;-57
2023/04/14 07:05:06;;;;;;;4.25;1.38;;;;;;;18.85;49.22;99846.25;5056137;28;20048;-47
2023/04/14 07:07:35;;;;;;;2.40;1.48;;;;;;;18.84;49.13;99858.81;5056198;28;20049;-48
2023/04/14 07:10:02;;;;;;;3.13;1.38;;;;;;;18.83;49.22;99858.97;5056157;28;20049;-49
2023/04/14 07:12:30;;;;;;;2.80;1.33;;;;;;;18.81;48.90;99855.59;5056156;28;20052;-46
2023/04/14 07:14:57;;;;;;;3.90;1.35;;;;;;;18.81;48.92;99855.59;5056011;28;20051;-51
2023/04/14 07:17:24;;;;;;;4.97;1.45;;;;;;;18.80;48.74;99859.25;5056351;28;20051;-47
2023/04/14 07:19:52;;;;;;;2.65;1.45;;;;;;;18.78;48.64;99865.63;5055619;28;20052;-47
2023/04/14 07:22:19;;;;;;;3.78;1.70;;;;;;;18.76;48.50;99873.00;5055633;28;20045;-46
2023/04/14 07:24:47;;;;;;;3.35;1.80;;;;;;;18.75;48.44;99882.00;5056042;28;20058;-57
2023/04/14 07:27:14;;;;;;;2.53;1.48;;;;;;;18.75;48.26;99883.84;5054722;28;20375;-57
2023/04/14 07:29:42;;;;;;;2.60;1.73;;;;;;;18.73;48.17;99888.53;5055868;28;20060;-58
2023/04/14 07:32:10;;;;;;;3.45;2.20;;;;;;;18.72;48.45;99897.56;5055604;28;20491;-57
2023/04/14 07:34:42;;;;;;;3.17;1.48;;;;;;;18.71;48.55;99903.91;5055628;28;20426;-51
2023/04/14 07:37:10;;;;;;;3.90;1.83;;;;;;;18.68;48.45;99901.53;5055683;28;20049;-49
2023/04/14 07:39:37;;;;;;;3.42;2.15;;;;;;;18.57;48.62;99909.75;5054777;28;20056;-53
2023/04/14 07:42:05;;;;;;;4.20;2.20;;;;;;;18.47;48.96;99918.69;5055673;28;20419;-49
2023/04/14 07:44:33;;;;;;;4.35;2.55;;;;;;;18.37;48.63;99919.72;5055588;28;20052;-52
2023/04/14 07:47:00;;;;;;;3.92;2.50;;;;;;;18.25;48.83;99925.25;5055498;28;20052;-57
2023/04/14 08:09:11;;;;;;;3.88;1.33;;;;;;;18.02;50.38;99921.25;5686344;23;20049;-59
2023/04/14 08:11:38;;;;;;;2.67;1.33;;;;;;;18.10;50.52;99928.56;4863075;29;20056;-59
2023/04/14 08:14:05;;;;;;;2.30;1.20;;;;;;;18.16;50.46;99930.66;4861911;29;20065;-59
2023/04/14 08:16:35;;;;;;;3.60;1.48;;;;;;;18.21;50.35;99931.91;4862798;29;20049;-59
2023/04/14 08:19:03;;;;;;;3.22;1.30;;;;;;;18.26;50.27;99937.66;4863009;29;20467;-59
2023/04/14 08:21:31;;;;;;;2.35;0.90;;;;;;;18.29;50.32;99945.41;4862778;29;20057;-59
2023/04/14 08:23:59;;;;;;;3.25;1.30;;;;;;;18.31;50.22;99950.66;4862659;29;20053;-59
2023/04/14 08:26:27;;;;;;;2.78;0.90;;;;;;;18.35;50.30;99951.16;4861821;29;20044;-59
2023/04/14 08:28:54;;;;;;;3.25;1.13;;;;;;;18.37;50.31;99958.06;4862594;29;20053;-59
2023/04/14 08:31:23;;;;;;;2.75;1.00;;;;;;;18.39;50.25;99966.84;4862429;29;20053;-58
2023/04/14 08:33:51;;;;;;;2.78;1.30;;;;;;;18.42;50.20;99965.69;4862244;29;20503;-58
2023/04/14 08:36:19;;;;;;;1.85;1.05;;;;;;;18.43;50.32;99975.41;4862158;29;20054;-58
2023/04/14 08:38:46;;;;;;;2.95;0.82;;;;;;;18.44;50.22;99969.91;4862488;29;20049;-59
2023/04/14 08:41:18;;;;;;;3.85;1.10;;;;;;;18.46;50.13;99975.94;4862407;29;20057;-59
2023/04/14 08:43:45;;;;;;;2.00;0.82;;;;;;;18.46;50.15;99985.81;4862049;29;20049;-59
2023/04/14 08:46:13;;;;;;;2.63;1.08;;;;;;;18.47;50.28;99987.50;4862103;29;20049;-59
2023/04/14 08:48:44;;;;;;;2.38;1.10;;;;;;;18.49;50.24;99985.53;4861989;29;20053;-59
2023/04/14 08:51:17;;;;;;;4.32;1.35;;;;;;;18.50;50.26;99979.19;4862115;29;20057;-58
2023/04/14 08:53:47;;;;;;;2.10;1.08;;;;;;;18.49;50.24;99972.97;4862044;29;20064;-58
2023/04/14 08:56:17;;;;;;;1.77;1.00;;;;;;;18.50;50.22;99982.69;4861613;29;20045;-58
2023/04/14 08:58:46;;;;;;;2.50;1.20;;;;;;;18.51;50.27;99978.19;4862143;29;20064;-58
2023/04/14 09:01:14;;;;;;;1.60;0.98;;;;;;;18.52;50.34;99990.63;4860724;29;20057;-58
2023/04/14 09:03:42;;;;;;;3.45;1.20;;;;;;;18.52;50.45;99996.81;4861902;29;20049;-57
2023/04/14 09:06:11;;;;;;;2.58;0.80;;;;;;;18.53;52.04;99995.81;4861922;29;20052;-58
2023/04/14 09:08:39;;;;;;;3.50;2.05;;;;;;;18.02;50.68;100005.09;4861596;29;20060;-56
2023/04/14 09:11:08;;;;;;;3.72;2.30;;;;;;;17.90;52.15;100013.44;4861652;29;20128;-55
2023/04/14 09:13:37;;;;;;;3.92;2.22;;;;;;;17.91;52.21;100023.19;4861636;29;20064;-55
2023/04/14 09:16:06;;;;;;;5.00;1.98;;;;;;;17.92;51.72;100024.88;4861475;29;20058;-55
2023/04/14 09:18:34;;;;;;;4.10;2.22;;;;;;;17.92;51.98;100031.06;4861357;29;20057;-57
2023/04/14 09:21:06;;;;;;;2.87;2.07;;;;;;;17.91;51.88;100029.38;4861815;29;20072;-56
2023/04/14 09:23:53;;;;;;;4.88;1.60;;;;;;;17.92;51.55;100028.41;4861651;29;20049;-55
2023/04/14 09:26:21;;;;;;;4.63;1.80;;;;;;;17.91;52.47;100036.59;4861349;29;20054;-55
2023/04/14 09:28:48;;;;;;;2.33;1.50;;;;;;;17.90;52.86;100034.88;4861640;29;20376;-55
2023/04/14 09:31:16;;;;;;;3.60;1.77;;;;;;;17.90;52.62;100037.53;4861260;29;20060;-55
2023/04/14 09:33:49;;;;;;;4.35;1.77;;;;;;;17.88;52.18;100034.19;4861147;29;20052;-55
2023/04/14 09:36:18;;;;;;;2.95;1.50;;;;;;;17.87;52.05;100029.81;4861127;29;20046;-55
2023/04/14 09:38:47;;;;;;;2.97;1.70;;;;;;;17.85;52.16;100027.25;4861543;29;20049;-58
2023/04/14 09:41:16;;;;;;;4.10;1.95;;;;;;;17.84;52.33;100014.88;4861451;29;20060;-59
2023/04/14 09:43:44;;;;;;;3.35;1.85;;;;;;;17.83;51.61;100015.03;4861324;29;20488;-59
2023/04/14 09:46:14;;;;;;;3.83;1.67;;;;;;;17.81;52.02;100017.81;4861220;29;20041;-59
2023/04/14 09:48:55;;;;;;;3.17;2.00;;;;;;;17.81;52.35;100014.31;4861117;29;20057;-58
2023/04/14 09:51:27;;;;;;;4.10;1.83;;;;;;;17.81;52.37;100016.97;4861461;29;20056;-59
2023/04/14 09:54:01;;;;;;;3.53;1.73;;;;;;;17.79;52.12;100012.63;4861395;29;20056;-59
2023/04/14 09:56:28;;;;;;;2.97;1.55;;;;;;;17.80;52.46;100010.78;4860951;29;20049;-59
2023/04/14 09:58:58;;;;;;;3.20;1.67;;;;;;;17.78;52.14;100010.94;4861050;29;20050;-56
2023/04/14 10:01:31;;;;;;;4.35;1.63;;;;;;;17.77;52.26;100001.19;4861105;29;20060;-55
2023/04/14 10:04:00;;;;;;;4.57;1.40;;;;;;;17.78;52.77;100004.72;4861000;29;20488;-59
2023/04/14 10:06:30;;;;;;;4.30;1.70;;;;;;;17.72;52.47;99995.41;4860817;29;20045;-60
2023/04/14 10:08:58;;;;;;;5.32;1.60;;;;;;;17.72;55.79;100000.75;4860805;29;20056;-59
2023/04/14 10:11:28;;;;;;;2.30;1.25;;;;;;;17.76;57.48;100012.91;4861117;29;20072;-60
2023/04/14 10:13:58;;;;;;;2.00;1.10;;;;;;;17.79;58.35;100011.78;4860690;29;20061;-60
2023/04/14 10:16:26;;;;;;;2.75;1.23;;;;;;;17.82;58.83;100013.31;4860533;29;20049;-60
2023/04/14 10:18:55;;;;;;;2.10;1.00;;;;;;;17.86;59.06;100017.38;4860774;29;20050;-59
2023/04/14 10:21:23;;;;;;;2.55;0.93;;;;;;;17.89;59.09;100012.59;4861001;29;20046;-60
2023/04/14 10:23:51;;;;;;;3.03;0.80;;;;;;;17.91;59.44;100015.16;4860873;29;20050;-60
2023/04/14 10:26:19;;;;;;;2.28;0.98;;;;;;;17.92;59.56;100015.00;4861443;29;20045;-60
2023/04/14 10:28:49;;;;;;;2.22;1.05;;;;;;;17.94;59.46;100004.13;4863482;29;20061;-59
2023/04/14 10:31:42;;;;;;;2.58;0.85;;;;;;;17.96;59.62;99997.66;4864232;29;20046;-60
2023/04/14 10:34:17;;;;;;;5.18;1.27;;;;;;;17.97;59.87;99983.28;4864334;29;20484;-59
2023/04/14 10:36:45;;;;;;;2.10;0.93;;;;;;;17.99;59.88;99980.47;4864426;29;20068;-59
2023/04/14 10:39:12;;;;;;;1.83;0.70;;;;;;;18.00;59.96;99985.69;4864544;29;20057;-58
2023/04/14 10:41:42;;;;;;;2.30;0.98;;;;;;;18.01;60.00;99978.47;4864764;29;20057;-58
2023/04/14 10:44:23;;;;;;;2.70;0.80;;;;;;;18.02;60.16;99980.16;4864402;29;20057;-58
2023/04/14 10:46:51;;;;;;;3.05;0.70;;;;;;;18.03;60.04;99974.69;4864653;29;20388;-58
2023/04/14 10:49:43;;;;;;;1.65;0.63;;;;;;;18.05;60.19;99979.88;4864325;29;20472;-58
2023/04/14 10:52:10;;;;;;;1.95;0.93;;;;;;;18.05;60.33;99974.53;4864289;29;20056;-58
2023/04/14 10:55:06;;;;;;;1.90;0.82;;;;;;;18.07;60.18;99972.56;4864167;29;20057;-59
2023/04/14 10:57:45;;;;;;;2.72;0.90;;;;;;;18.09;60.19;99972.41;4864422;29;20072;-60
2023/04/14 11:00:24;;;;;;;1.55;0.70;;;;;;;18.09;60.30;99975.09;4864363;29;20552;-58
2023/04/14 11:03:09;;;;;;;1.73;0.60;;;;;;;18.09;60.39;99965.22;4864358;29;20400;-58
2023/04/14 11:05:47;;;;;;;1.92;0.85;;;;;;;18.10;60.36;99969.56;4864402;29;20404;-58
2023/04/14 11:08:18;;;;;;;2.30;1.10;;;;;;;18.10;60.37;99972.25;4864177;29;20042;-58
2023/04/14 11:10:49;;;;;;;2.17;0.80;;;;;;;18.11;60.27;99968.59;4863893;29;20053;-58
2023/04/14 11:13:18;;;;;;;2.05;1.10;;;;;;;18.11;60.21;99957.91;4864064;29;20107;-58
2023/04/14 11:15:47;;;;;;;1.90;0.80;;;;;;;18.13;60.09;99955.91;4863804;29;20411;-58
2023/04/14 11:18:17;;;;;;;1.95;0.60;;;;;;;18.13;60.38;99957.75;4863696;29;20045;-58
2023/04/14 11:20:44;;;;;;;2.03;0.70;;;;;;;18.14;60.37;99951.38;4863753;29;20076;-59
2023/04/14 11:23:13;;;;;;;1.75;0.80;;;;;;;18.15;60.43;99961.09;4863619;29;20057;-60
2023/04/14 11:25:40;;;;;;;1.73;0.95;;;;;;;18.15;60.36;99948.56;4863734;29;20388;-60
2023/04/14 11:28:08;;;;;;;2.50;0.95;;;;;;;18.16;60.37;99944.06;4863817;29;20123;-60
2023/04/14 11:30:35;;;;;;;2.05;0.85;;;;;;;18.16;60.22;99939.53;4863388;29;20523;-59
2023/04/14 11:33:02;;;;;;;1.98;0.95;;;;;;;18.17;60.00;99930.50;4863754;29;20053;-59
2023/04/14 11:35:30;;;;;;;2.28;0.80;;;;;;;18.19;60.11;99933.91;4863627;29;20045;-59
2023/04/14 11:37:59;;;;;;;3.22;0.80;;;;;;;18.21;60.22;99925.72;4863430;29;20050;-59
2023/04/14 11:40:26;;;;;;;1.67;0.82;;;;;;;18.21;60.08;99921.19;4863604;29;20484;-60
2023/04/14 11:42:56;;;;;;;2.35;0.80;;;;;;;18.22;60.09;99919.34;4863508;29;20060;-60
2023/04/14 11:45:29;;;;;;;3.78;1.30;;;;;;;18.22;60.28;99914.84;4861669;29;20496;-60
2023/04/14 11:48:02;;;;;;;6.25;1.08;;;;;;;18.23;60.14;99918.34;4862861;29;20042;-60
2023/04/14 11:50:34;;;;;;;3.38;1.17;;;;;;;18.24;60.19;99931.63;4863089;29;20049;-59
2023/04/14 11:53:07;;;;;;;2.42;1.05;;;;;;;18.24;60.13;99920.06;4863741;29;20060;-59
2023/04/14 11:55:34;;;;;;;4.72;1.17;;;;;;;18.25;60.06;99916.38;4863230;29;20046;-59
2023/04/14 11:58:03;;;;;;;2.53;1.10;;;;;;;18.25;60.13;99913.72;4862951;29;20471;-59
2023/04/14 12:00:31;;;;;;;2.72;0.90;;;;;;;18.26;60.10;99907.34;4862872;29;20518;-59
2023/04/14 12:03:02;;;;;;;3.42;1.13;;;;;;;18.26;59.89;99904.66;4863027;29;20500;-59
2023/04/14 12:05:32;;;;;;;2.42;0.80;;;;;;;18.25;60.01;99893.13;4862281;29;20053;-59